createdAt,value
2023-01-30T00:00:53.111Z,1020.64
2023-01-30T00:01:53.141Z,1020.63
2023-01-30T00:02:53.119Z,1020.58
2023-01-30T00:03:53.127Z,1020.58
2023-01-30T00:04:53.208Z,1020.55
2023-01-30T00:05:53.133Z,1020.49
2023-01-30T00:06:53.141Z,1020.44
2023-01-30T00:07:53.147Z,1020.42
2023-01-30T00:08:53.156Z,1020.42
2023-01-30T00:09:53.181Z,1020.24
2023-01-30T00:10:53.140Z,1020.24
2023-01-30T00:11:53.139Z,1020.22
2023-01-30T00:12:53.128Z,1020.15
2023-01-30T00:13:53.143Z,1020.19
2023-01-30T00:14:53.135Z,1020.18
2023-01-30T00:15:53.201Z,1020.28
2023-01-30T00:16:53.128Z,1020.17
2023-01-30T00:17:53.126Z,1020.01
2023-01-30T00:18:53.154Z,1020.1
2023-01-30T00:19:53.135Z,1020.01
2023-01-30T00:20:53.124Z,1019.97
2023-01-30T00:21:53.143Z,1020.04
2023-01-30T00:23:00.826Z,1020.11
2023-01-30T00:23:53.154Z,1019.98
2023-01-30T00:24:53.245Z,1020.02
2023-01-30T00:25:53.173Z,1019.96
2023-01-30T00:26:53.124Z,1019.94
2023-01-30T00:27:53.132Z,1019.9
2023-01-30T00:28:53.147Z,1019.89
2023-01-30T00:30:02.502Z,1019.95
2023-01-30T00:30:53.184Z,1019.94
2023-01-30T00:31:53.152Z,1019.96
2023-01-30T00:32:53.130Z,1019.9
2023-01-30T00:33:53.134Z,1019.91
2023-01-30T00:34:53.132Z,1019.88
2023-01-30T00:35:53.133Z,1019.91
2023-01-30T00:37:07.160Z,1019.94
2023-01-30T00:37:53.132Z,1019.93
2023-01-30T00:38:53.148Z,1019.85
2023-01-30T00:39:53.121Z,1019.88
2023-01-30T00:40:53.134Z,1019.86
2023-01-30T00:41:53.124Z,1019.96
2023-01-30T00:42:53.117Z,1019.87
2023-01-30T00:43:53.142Z,1019.84
2023-01-30T00:44:53.130Z,1019.82
2023-01-30T00:45:53.168Z,1019.77
2023-01-30T00:46:53.110Z,1019.73
2023-01-30T00:47:53.111Z,1019.78
2023-01-30T00:48:53.144Z,1019.79
2023-01-30T00:49:53.105Z,1019.79
2023-01-30T00:50:53.111Z,1019.71
2023-01-30T00:51:53.145Z,1019.69
2023-01-30T00:52:53.105Z,1019.73
2023-01-30T00:53:53.123Z,1019.72
2023-01-30T00:54:53.102Z,1019.62
2023-01-30T00:55:53.108Z,1019.59
2023-01-30T00:56:53.108Z,1019.62
2023-01-30T00:57:53.102Z,1019.65
2023-01-30T00:58:53.123Z,1019.64
2023-01-30T00:59:53.107Z,1019.53
2023-01-30T01:00:53.106Z,1019.52
2023-01-30T01:01:53.147Z,1019.47
2023-01-30T01:02:53.150Z,1019.55
2023-01-30T01:03:53.124Z,1019.51
2023-01-30T01:04:53.106Z,1019.51
2023-01-30T01:05:53.108Z,1019.46
2023-01-30T01:06:53.124Z,1019.47
2023-01-30T01:07:53.100Z,1019.39
2023-01-30T01:08:53.134Z,1019.39
2023-01-30T01:09:53.108Z,1019.62
2023-01-30T01:10:53.103Z,1019.52
2023-01-30T01:11:53.233Z,1019.63
2023-01-30T01:12:53.115Z,1019.53
2023-01-30T01:13:53.127Z,1019.59
2023-01-30T01:14:53.106Z,1019.51
2023-01-30T01:15:53.107Z,1019.55
2023-01-30T01:16:53.126Z,1019.58
2023-01-30T01:17:53.218Z,1019.59
2023-01-30T01:18:53.139Z,1019.51
2023-01-30T01:19:53.129Z,1019.46
2023-01-30T01:20:53.124Z,1019.43
2023-01-30T01:21:53.144Z,1019.45
2023-01-30T01:22:53.124Z,1019.43
2023-01-30T01:23:53.236Z,1019.55
2023-01-30T01:24:53.127Z,1019.48
2023-01-30T01:25:53.132Z,1019.5
2023-01-30T01:26:53.132Z,1019.41
2023-01-30T01:27:53.119Z,1019.41
2023-01-30T01:28:53.134Z,1019.39
2023-01-30T01:29:53.141Z,1019.35
2023-01-30T01:30:53.133Z,1019.35
2023-01-30T01:31:53.177Z,1019.29
2023-01-30T01:32:53.130Z,1019.25
2023-01-30T01:33:53.129Z,1019.22
2023-01-30T01:34:53.146Z,1019.17
2023-01-30T01:35:53.120Z,1019.16
2023-01-30T01:36:54.392Z,1019.09
2023-01-30T01:37:53.137Z,1019.08
2023-01-30T01:38:53.125Z,1019.01
2023-01-30T01:39:53.137Z,1018.99
2023-01-30T01:40:53.149Z,1018.84
2023-01-30T01:41:53.121Z,1018.93
2023-01-30T01:42:53.143Z,1018.79
2023-01-30T01:43:53.127Z,1018.78
2023-01-30T01:44:53.140Z,1018.79
2023-01-30T01:45:53.160Z,1018.68
2023-01-30T01:46:53.129Z,1018.62
2023-01-30T01:47:53.122Z,1018.46
2023-01-30T01:48:53.175Z,1018.5
2023-01-30T01:49:53.143Z,1018.55
2023-01-30T01:50:53.112Z,1018.36
2023-01-30T01:51:53.137Z,1018.32
2023-01-30T01:52:53.135Z,1018.36
2023-01-30T01:53:53.131Z,1018.16
2023-01-30T01:54:53.139Z,1018.31
2023-01-30T01:55:53.122Z,1018.27
2023-01-30T01:56:53.129Z,1018.36
2023-01-30T01:57:53.123Z,1018.42
2023-01-30T01:58:53.123Z,1018.34
2023-01-30T01:59:53.133Z,1018.3
2023-01-30T02:00:53.128Z,1018.35
2023-01-30T02:01:53.113Z,1018.34
2023-01-30T02:02:53.111Z,1018.34
2023-01-30T02:03:53.124Z,1018.37
2023-01-30T02:04:53.120Z,1018.45
2023-01-30T02:05:53.114Z,1018.45
2023-01-30T02:06:53.125Z,1018.42
2023-01-30T02:07:53.119Z,1018.36
2023-01-30T02:08:53.108Z,1018.36
2023-01-30T02:09:53.131Z,1018.33
2023-01-30T02:10:53.122Z,1018.17
2023-01-30T02:11:53.103Z,1018.24
2023-01-30T02:12:53.111Z,1018.17
2023-01-30T02:13:53.181Z,1018.06
2023-01-30T02:14:53.120Z,1018.03
2023-01-30T02:15:53.105Z,1018.06
2023-01-30T02:16:53.114Z,1018.12
2023-01-30T02:17:53.182Z,1018.04
2023-01-30T02:18:53.110Z,1018.14
2023-01-30T02:19:53.246Z,1018.02
2023-01-30T02:20:53.104Z,1018.05
2023-01-30T02:21:53.130Z,1017.88
2023-01-30T02:22:53.112Z,1017.95
2023-01-30T02:23:53.108Z,1017.91
2023-01-30T02:24:53.124Z,1017.96
2023-01-30T02:25:54.516Z,1017.89
2023-01-30T02:26:53.129Z,1017.76
2023-01-30T02:27:53.110Z,1017.69
2023-01-30T02:28:53.104Z,1017.68
2023-01-30T02:29:53.105Z,1017.73
2023-01-30T02:30:53.195Z,1017.69
2023-01-30T02:31:53.113Z,1017.54
2023-01-30T02:32:53.114Z,1017.61
2023-01-30T02:33:53.118Z,1017.41
2023-01-30T02:34:53.118Z,1017.42
2023-01-30T02:35:53.142Z,1017.42
2023-01-30T02:36:53.148Z,1017.57
2023-01-30T02:37:53.119Z,1017.46
2023-01-30T02:38:53.206Z,1017.46
2023-01-30T02:39:53.135Z,1017.39
2023-01-30T02:40:53.146Z,1017.39
2023-01-30T02:41:53.144Z,1017.35
2023-01-30T02:42:53.140Z,1017.27
2023-01-30T02:43:53.145Z,1017.31
2023-01-30T02:44:53.195Z,1017.24
2023-01-30T02:45:53.196Z,1017.3
2023-01-30T02:46:53.126Z,1017.39
2023-01-30T02:47:53.136Z,1017.35
2023-01-30T02:48:53.124Z,1017.46
2023-01-30T02:49:53.130Z,1017.42
2023-01-30T02:50:53.185Z,1017.49
2023-01-30T02:51:53.146Z,1017.4
2023-01-30T02:52:53.131Z,1017.47
2023-01-30T02:53:53.125Z,1017.42
2023-01-30T02:54:53.139Z,1017.62
2023-01-30T02:55:53.139Z,1017.54
2023-01-30T02:56:53.155Z,1017.55
2023-01-30T02:57:53.127Z,1017.46
2023-01-30T02:58:53.133Z,1017.54
2023-01-30T02:59:53.142Z,1017.47
2023-01-30T03:00:53.113Z,1017.34
2023-01-30T03:01:53.138Z,1017.16
2023-01-30T03:02:53.141Z,1017.27
2023-01-30T03:03:53.122Z,1017.3
2023-01-30T03:04:53.134Z,1017.2
2023-01-30T03:05:53.133Z,1017.22
2023-01-30T03:06:53.136Z,1017.17
2023-01-30T03:07:53.126Z,1017.11
2023-01-30T03:08:53.128Z,1017.11
2023-01-30T03:09:53.122Z,1017.03
2023-01-30T03:10:53.132Z,1017.12
2023-01-30T03:11:53.136Z,1017.24
2023-01-30T03:12:53.138Z,1016.98
2023-01-30T03:13:53.138Z,1017.18
2023-01-30T03:14:53.127Z,1016.98
2023-01-30T03:15:53.237Z,1017.16
2023-01-30T03:16:53.135Z,1017.05
2023-01-30T03:17:53.130Z,1017.09
2023-01-30T03:18:53.124Z,1017.05
2023-01-30T03:19:53.120Z,1017.1
2023-01-30T03:20:53.134Z,1017.02
2023-01-30T03:21:53.129Z,1017.07
2023-01-30T03:22:53.120Z,1017
2023-01-30T03:23:53.109Z,1017.03
2023-01-30T03:24:53.130Z,1016.97
2023-01-30T03:25:53.105Z,1016.9
2023-01-30T03:26:53.119Z,1017.01
2023-01-30T03:27:53.121Z,1016.82
2023-01-30T03:28:53.118Z,1016.87
2023-01-30T03:29:53.109Z,1016.72
2023-01-30T03:30:53.211Z,1016.65
2023-01-30T03:31:53.134Z,1016.55
2023-01-30T03:32:53.118Z,1016.48
2023-01-30T03:33:53.105Z,1016.7
2023-01-30T03:34:53.105Z,1016.65
2023-01-30T03:35:53.102Z,1016.63
2023-01-30T03:36:53.124Z,1016.74
2023-01-30T03:37:53.117Z,1016.59
2023-01-30T03:38:53.107Z,1016.32
2023-01-30T03:39:53.105Z,1016.36
2023-01-30T03:40:53.110Z,1016.59
2023-01-30T03:41:53.134Z,1016.37
2023-01-30T03:42:53.113Z,1016.42
2023-01-30T03:43:53.102Z,1016.54
2023-01-30T03:44:53.109Z,1016.28
2023-01-30T03:45:53.134Z,1016.24
2023-01-30T03:46:53.243Z,1016.28
2023-01-30T03:47:53.108Z,1016.2
2023-01-30T03:48:53.106Z,1016.25
2023-01-30T03:49:53.120Z,1016.17
2023-01-30T03:50:53.101Z,1016.15
2023-01-30T03:51:53.127Z,1016.28
2023-01-30T03:52:53.236Z,1016.32
2023-01-30T03:53:53.112Z,1016.25
2023-01-30T03:54:53.102Z,1016.18
2023-01-30T03:55:53.109Z,1016.06
2023-01-30T03:56:53.124Z,1016.09
2023-01-30T03:57:53.138Z,1016.13
2023-01-30T03:58:53.136Z,1016.04
2023-01-30T03:59:53.102Z,1015.85
2023-01-30T04:00:54.018Z,1015.8
2023-01-30T04:01:53.147Z,1015.73
2023-01-30T04:02:53.133Z,1015.91
2023-01-30T04:03:53.130Z,1015.78
2023-01-30T04:04:53.119Z,1015.73
2023-01-30T04:05:53.122Z,1015.87
2023-01-30T04:06:53.143Z,1015.83
2023-01-30T04:07:53.127Z,1016
2023-01-30T04:08:53.115Z,1016
2023-01-30T04:09:53.137Z,1015.44
2023-01-30T04:10:53.131Z,1015.61
2023-01-30T04:11:53.173Z,1015.49
2023-01-30T04:12:53.132Z,1015.5
2023-01-30T04:13:53.124Z,1015.62
2023-01-30T04:14:53.129Z,1015.59
2023-01-30T04:15:53.128Z,1015.5
2023-01-30T04:16:53.209Z,1015.43
2023-01-30T04:17:53.235Z,1015.52
2023-01-30T04:18:53.132Z,1015.6
2023-01-30T04:19:53.128Z,1015.62
2023-01-30T04:20:53.106Z,1015.73
2023-01-30T04:21:53.141Z,1015.57
2023-01-30T04:22:53.142Z,1015.59
2023-01-30T04:23:53.147Z,1015.96
2023-01-30T04:24:53.127Z,1015.72
2023-01-30T04:25:53.147Z,1015.82
2023-01-30T04:26:53.131Z,1015.87
2023-01-30T04:27:53.134Z,1015.95
2023-01-30T04:28:53.123Z,1016
2023-01-30T04:29:53.116Z,1016.07
2023-01-30T04:30:53.168Z,1015.94
2023-01-30T04:31:53.137Z,1015.94
2023-01-30T04:32:53.134Z,1015.95
2023-01-30T04:33:53.136Z,1015.9
2023-01-30T04:34:53.132Z,1015.85
2023-01-30T04:35:53.131Z,1015.97
2023-01-30T04:36:53.149Z,1015.84
2023-01-30T04:37:53.114Z,1015.81
2023-01-30T04:38:53.113Z,1015.81
2023-01-30T04:39:53.131Z,1015.78
2023-01-30T04:40:53.109Z,1015.76
2023-01-30T04:41:53.111Z,1015.67
2023-01-30T04:42:53.221Z,1015.77
2023-01-30T04:43:53.108Z,1015.82
2023-01-30T04:44:53.112Z,1015.72
2023-01-30T04:45:53.111Z,1015.73
2023-01-30T04:46:53.106Z,1015.68
2023-01-30T04:47:53.219Z,1015.63
2023-01-30T04:48:53.112Z,1015.58
2023-01-30T04:49:53.109Z,1015.53
2023-01-30T04:50:53.110Z,1015.55
2023-01-30T04:51:53.132Z,1015.51
2023-01-30T04:52:53.125Z,1015.5
2023-01-30T04:53:53.120Z,1015.49
2023-01-30T04:54:53.121Z,1015.51
2023-01-30T04:55:53.103Z,1015.45
2023-01-30T04:56:53.108Z,1015.48
2023-01-30T04:57:53.122Z,1015.46
2023-01-30T04:58:53.112Z,1015.46
2023-01-30T04:59:53.109Z,1015.35
2023-01-30T05:00:53.129Z,1015.27
2023-01-30T05:01:53.152Z,1015.27
2023-01-30T05:02:53.139Z,1015.27
2023-01-30T05:03:53.117Z,1015.42
2023-01-30T05:04:53.106Z,1015.36
2023-01-30T05:05:53.102Z,1015.37
2023-01-30T05:06:53.123Z,1015.38
2023-01-30T05:07:53.130Z,1015.43
2023-01-30T05:08:53.116Z,1015.43
2023-01-30T05:09:53.122Z,1015.3
2023-01-30T05:10:53.107Z,1015.24
2023-01-30T05:11:53.121Z,1015.13
2023-01-30T05:12:53.135Z,1015.15
2023-01-30T05:13:53.134Z,1015.03
2023-01-30T05:14:53.124Z,1015.06
2023-01-30T05:15:53.130Z,1015.06
2023-01-30T05:16:53.188Z,1015.12
2023-01-30T05:17:53.125Z,1015.24
2023-01-30T05:18:53.143Z,1015.14
2023-01-30T05:19:53.126Z,1015.15
2023-01-30T05:20:53.126Z,1015.08
2023-01-30T05:21:53.223Z,1015
2023-01-30T05:22:53.133Z,1015.03
2023-01-30T05:23:53.149Z,1015
2023-01-30T05:24:53.122Z,1014.88
2023-01-30T05:25:53.132Z,1014.86
2023-01-30T05:26:53.139Z,1014.81
2023-01-30T05:27:53.127Z,1014.76
2023-01-30T05:28:53.144Z,1014.7
2023-01-30T05:29:53.122Z,1014.6
2023-01-30T05:30:53.123Z,1014.61
2023-01-30T05:31:53.116Z,1014.59
2023-01-30T05:32:53.129Z,1014.62
2023-01-30T05:33:53.164Z,1014.62
2023-01-30T05:34:53.129Z,1014.62
2023-01-30T05:35:53.119Z,1014.6
2023-01-30T05:36:53.159Z,1014.5
2023-01-30T05:37:53.133Z,1014.51
2023-01-30T05:38:53.152Z,1014.45
2023-01-30T05:39:53.131Z,1014.47
2023-01-30T05:40:53.104Z,1014.32
2023-01-30T05:41:53.135Z,1014.35
2023-01-30T05:42:53.125Z,1014.3
2023-01-30T05:43:53.149Z,1014.2
2023-01-30T05:44:53.123Z,1014.23
2023-01-30T05:45:53.129Z,1014.2
2023-01-30T05:46:53.204Z,1014.14
2023-01-30T05:47:56.314Z,1014.16
2023-01-30T05:48:53.142Z,1014.08
2023-01-30T05:49:53.127Z,1013.95
2023-01-30T05:50:53.124Z,1013.97
2023-01-30T05:51:53.130Z,1014.01
2023-01-30T05:52:53.138Z,1014.01
2023-01-30T05:53:53.140Z,1013.98
2023-01-30T05:54:53.132Z,1013.93
2023-01-30T05:55:53.119Z,1013.82
2023-01-30T05:56:53.135Z,1013.85
2023-01-30T05:57:53.119Z,1013.82
2023-01-30T05:58:53.136Z,1013.77
2023-01-30T05:59:53.117Z,1013.82
2023-01-30T06:00:53.112Z,1013.87
2023-01-30T06:01:53.111Z,1013.81
2023-01-30T06:02:53.177Z,1013.92
2023-01-30T06:03:53.191Z,1013.86
2023-01-30T06:04:53.109Z,1013.8
2023-01-30T06:05:53.112Z,1013.77
2023-01-30T06:06:53.117Z,1013.74
2023-01-30T06:07:53.123Z,1013.7
2023-01-30T06:08:53.129Z,1013.7
2023-01-30T06:09:53.107Z,1013.6
2023-01-30T06:10:53.224Z,1013.66
2023-01-30T06:11:53.354Z,1013.74
2023-01-30T06:12:53.107Z,1013.7
2023-01-30T06:13:53.180Z,1013.83
2023-01-30T06:14:53.110Z,1013.67
2023-01-30T06:15:53.125Z,1013.7
2023-01-30T06:16:53.114Z,1013.69
2023-01-30T06:17:53.116Z,1013.71
2023-01-30T06:18:53.114Z,1013.72
2023-01-30T06:19:53.117Z,1013.81
2023-01-30T06:20:53.102Z,1013.74
2023-01-30T06:21:53.103Z,1013.7
2023-01-30T06:22:53.123Z,1013.76
2023-01-30T06:23:53.115Z,1013.76
2023-01-30T06:24:53.122Z,1013.73
2023-01-30T06:25:53.114Z,1013.77
2023-01-30T06:26:53.199Z,1013.71
2023-01-30T06:27:53.134Z,1013.78
2023-01-30T06:28:53.122Z,1013.77
2023-01-30T06:29:53.141Z,1013.66
2023-01-30T06:30:53.265Z,1013.66
2023-01-30T06:31:53.127Z,1013.62
2023-01-30T06:32:53.127Z,1013.59
2023-01-30T06:33:53.130Z,1013.68
2023-01-30T06:34:53.138Z,1013.7
2023-01-30T06:35:53.126Z,1013.81
2023-01-30T06:36:53.119Z,1013.83
2023-01-30T06:37:53.196Z,1013.83
2023-01-30T06:38:53.128Z,1013.71
2023-01-30T06:39:53.143Z,1013.64
2023-01-30T06:40:53.122Z,1013.7
2023-01-30T06:41:53.132Z,1013.76
2023-01-30T06:42:53.128Z,1013.74
2023-01-30T06:43:53.131Z,1013.7
2023-01-30T06:44:53.138Z,1013.81
2023-01-30T06:45:53.172Z,1013.83
2023-01-30T06:46:53.128Z,1013.8
2023-01-30T06:47:53.131Z,1013.87
2023-01-30T06:48:53.113Z,1013.92
2023-01-30T06:49:53.144Z,1013.71
2023-01-30T06:50:53.116Z,1013.76
2023-01-30T06:51:53.147Z,1013.83
2023-01-30T06:52:53.128Z,1013.83
2023-01-30T06:53:53.416Z,1013.64
2023-01-30T06:54:53.141Z,1013.57
2023-01-30T06:55:53.142Z,1013.57
2023-01-30T06:56:53.119Z,1013.58
2023-01-30T06:57:53.119Z,1013.49
2023-01-30T06:58:53.156Z,1013.6
2023-01-30T06:59:53.141Z,1013.53
2023-01-30T07:00:53.113Z,1013.49
2023-01-30T07:01:53.144Z,1013.49
2023-01-30T07:02:53.124Z,1013.41
2023-01-30T07:03:53.167Z,1013.42
2023-01-30T07:04:53.162Z,1013.39
2023-01-30T07:05:53.140Z,1013.41
2023-01-30T07:06:53.124Z,1013.39
2023-01-30T07:07:53.129Z,1013.39
2023-01-30T07:08:53.134Z,1013.39
2023-01-30T07:10:06.877Z,1013.36
2023-01-30T07:10:53.134Z,1013.57
2023-01-30T07:11:53.121Z,1013.51
2023-01-30T07:12:53.124Z,1013.51
2023-01-30T07:13:53.130Z,1013.46
2023-01-30T07:14:53.120Z,1013.44
2023-01-30T07:15:53.139Z,1013.48
2023-01-30T07:16:53.158Z,1013.56
2023-01-30T07:17:53.123Z,1013.5
2023-01-30T07:18:53.127Z,1013.43
2023-01-30T07:19:53.105Z,1013.47
2023-01-30T07:20:53.126Z,1013.41
2023-01-30T07:21:53.111Z,1013.37
2023-01-30T07:22:53.111Z,1013.36
2023-01-30T07:23:53.127Z,1013.28
2023-01-30T07:24:53.111Z,1013.29
2023-01-30T07:25:53.162Z,1013.33
2023-01-30T07:26:53.113Z,1013.36
2023-01-30T07:27:53.115Z,1013.38
2023-01-30T07:28:53.116Z,1013.3
2023-01-30T07:29:53.429Z,1013.22
2023-01-30T07:30:53.217Z,1013.25
2023-01-30T07:31:53.139Z,1013.18
2023-01-30T07:32:53.120Z,1013.24
2023-01-30T07:33:53.109Z,1013.28
2023-01-30T07:34:53.114Z,1013.3
2023-01-30T07:35:53.119Z,1013.27
2023-01-30T07:36:53.105Z,1013.4
2023-01-30T07:37:53.106Z,1013.26
2023-01-30T07:38:53.126Z,1013.29
2023-01-30T07:39:53.111Z,1013.27
2023-01-30T07:40:53.124Z,1013.26
2023-01-30T07:41:53.916Z,1013.33
2023-01-30T07:42:53.110Z,1013.35
2023-01-30T07:43:53.110Z,1013.35
2023-01-30T07:44:53.114Z,1013.34
2023-01-30T07:45:53.121Z,1013.26
2023-01-30T07:46:53.162Z,1013.3
2023-01-30T07:47:53.104Z,1013.29
2023-01-30T07:48:53.122Z,1013.29
2023-01-30T07:49:53.117Z,1013.29
2023-01-30T07:50:53.137Z,1013.28
2023-01-30T07:51:53.127Z,1013.2
2023-01-30T07:52:53.134Z,1013.19
2023-01-30T07:53:53.149Z,1013.17
2023-01-30T07:54:53.121Z,1013.19
2023-01-30T07:55:53.170Z,1013.15
2023-01-30T07:56:53.136Z,1013.19
2023-01-30T07:57:53.129Z,1013.07
2023-01-30T07:58:53.127Z,1013.06
2023-01-30T07:59:53.129Z,1013.05
2023-01-30T08:00:53.166Z,1013.06
2023-01-30T08:01:53.162Z,1013
2023-01-30T08:02:53.144Z,1012.99
2023-01-30T08:03:53.120Z,1012.98
2023-01-30T08:04:53.191Z,1013.04
2023-01-30T08:05:53.134Z,1013.1
2023-01-30T08:06:53.132Z,1013
2023-01-30T08:07:53.150Z,1013.04
2023-01-30T08:08:53.139Z,1013.04
2023-01-30T08:09:53.127Z,1013.1
2023-01-30T08:10:53.128Z,1013.02
2023-01-30T08:11:53.128Z,1013.01
2023-01-30T08:12:53.135Z,1012.94
2023-01-30T08:13:53.136Z,1012.87
2023-01-30T08:14:53.134Z,1012.93
2023-01-30T08:15:53.127Z,1012.91
2023-01-30T08:16:53.191Z,1012.9
2023-01-30T08:17:53.147Z,1012.84
2023-01-30T08:18:53.126Z,1012.73
2023-01-30T08:19:53.137Z,1012.69
2023-01-30T08:20:53.123Z,1012.7
2023-01-30T08:21:53.137Z,1012.69
2023-01-30T08:22:53.182Z,1012.72
2023-01-30T08:23:53.154Z,1012.74
2023-01-30T08:24:53.129Z,1012.7
2023-01-30T08:25:53.130Z,1012.64
2023-01-30T08:26:53.116Z,1012.51
2023-01-30T08:27:53.162Z,1012.6
2023-01-30T08:28:53.132Z,1012.54
2023-01-30T08:29:53.119Z,1012.67
2023-01-30T08:30:53.196Z,1012.67
2023-01-30T08:31:53.123Z,1012.65
2023-01-30T08:32:53.143Z,1012.73
2023-01-30T08:33:53.155Z,1012.63
2023-01-30T08:34:53.110Z,1012.6
2023-01-30T08:35:53.107Z,1012.56
2023-01-30T08:36:53.110Z,1012.54
2023-01-30T08:37:53.120Z,1012.63
2023-01-30T08:38:53.121Z,1012.5
2023-01-30T08:39:53.122Z,1012.6
2023-01-30T08:40:53.109Z,1012.65
2023-01-30T08:41:53.118Z,1012.64
2023-01-30T08:42:53.169Z,1012.55
2023-01-30T08:43:53.106Z,1012.53
2023-01-30T08:44:53.111Z,1012.56
2023-01-30T08:45:53.114Z,1012.71
2023-01-30T08:46:53.119Z,1012.53
2023-01-30T08:47:53.142Z,1012.46
2023-01-30T08:48:53.105Z,1012.49
2023-01-30T08:49:53.147Z,1012.52
2023-01-30T08:50:53.142Z,1012.45
2023-01-30T08:51:53.110Z,1012.43
2023-01-30T08:52:53.123Z,1012.43
2023-01-30T08:53:53.141Z,1012.51
2023-01-30T08:54:53.120Z,1012.48
2023-01-30T08:55:53.142Z,1012.52
2023-01-30T08:56:53.106Z,1012.47
2023-01-30T08:57:53.128Z,1012.46
2023-01-30T08:58:53.110Z,1012.31
2023-01-30T08:59:53.107Z,1012.31
2023-01-30T09:00:53.160Z,1012.43
2023-01-30T09:01:53.108Z,1012.52
2023-01-30T09:02:53.137Z,1012.5
2023-01-30T09:03:53.121Z,1012.44
2023-01-30T09:04:53.135Z,1012.46
2023-01-30T09:05:53.133Z,1012.45
2023-01-30T09:06:53.114Z,1012.49
2023-01-30T09:07:53.158Z,1012.45
2023-01-30T09:08:53.143Z,1012.45
2023-01-30T09:09:53.127Z,1012.5
2023-01-30T09:10:53.112Z,1012.54
2023-01-30T09:11:53.124Z,1012.46
2023-01-30T09:12:53.152Z,1012.51
2023-01-30T09:13:53.137Z,1012.57
2023-01-30T09:14:53.140Z,1012.54
2023-01-30T09:15:53.150Z,1012.49
2023-01-30T09:16:53.132Z,1012.45
2023-01-30T09:17:53.126Z,1012.56
2023-01-30T09:18:53.146Z,1012.51
2023-01-30T09:19:53.127Z,1012.58
2023-01-30T09:20:53.829Z,1012.52
2023-01-30T09:21:53.116Z,1012.57
2023-01-30T09:22:53.125Z,1012.51
2023-01-30T09:23:53.136Z,1012.54
2023-01-30T09:24:53.114Z,1012.64
2023-01-30T09:25:53.123Z,1012.63
2023-01-30T09:26:53.130Z,1012.53
2023-01-30T09:27:53.135Z,1012.51
2023-01-30T09:28:53.140Z,1012.47
2023-01-30T09:29:53.130Z,1012.5
2023-01-30T09:30:53.169Z,1012.51
2023-01-30T09:31:53.120Z,1012.43
2023-01-30T09:32:53.126Z,1012.46
2023-01-30T09:33:53.131Z,1012.41
2023-01-30T09:34:53.120Z,1012.44
2023-01-30T09:35:53.126Z,1012.41
2023-01-30T09:36:53.127Z,1012.31
2023-01-30T09:37:53.127Z,1012.36
2023-01-30T09:38:53.158Z,1012.43
2023-01-30T09:39:53.129Z,1012.35
2023-01-30T09:40:53.125Z,1012.4
2023-01-30T09:41:53.131Z,1012.34
2023-01-30T09:42:53.123Z,1012.34
2023-01-30T09:43:53.139Z,1012.34
2023-01-30T09:44:53.126Z,1012.31
2023-01-30T09:45:53.174Z,1012.33
2023-01-30T09:46:53.132Z,1012.31
2023-01-30T09:47:53.107Z,1012.3
2023-01-30T09:48:53.135Z,1012.21
2023-01-30T09:49:53.212Z,1012.21
2023-01-30T09:50:53.111Z,1012.12
2023-01-30T09:51:53.113Z,1012.36
2023-01-30T09:52:53.109Z,1012.52
2023-01-30T09:53:53.124Z,1012.13
2023-01-30T09:54:53.114Z,1012.14
2023-01-30T09:55:53.104Z,1012.17
2023-01-30T09:56:53.111Z,1012.04
2023-01-30T09:57:53.110Z,1012.01
2023-01-30T09:58:53.134Z,1011.99
2023-01-30T09:59:53.107Z,1011.99
2023-01-30T10:00:53.115Z,1011.94
2023-01-30T10:01:53.107Z,1012.03
2023-01-30T10:02:53.112Z,1012
2023-01-30T10:03:53.136Z,1011.91
2023-01-30T10:05:01.300Z,1012.05
2023-01-30T10:05:53.114Z,1011.91
2023-01-30T10:06:53.179Z,1011.95
2023-01-30T10:07:53.349Z,1011.95
2023-01-30T10:08:53.132Z,1011.95
2023-01-30T10:09:53.117Z,1011.89
2023-01-30T10:11:08.955Z,1011.87
2023-01-30T10:11:53.113Z,1011.88
2023-01-30T10:12:53.112Z,1011.82
2023-01-30T10:13:53.123Z,1011.85
2023-01-30T10:14:53.108Z,1011.79
2023-01-30T10:15:53.173Z,1011.78
2023-01-30T10:16:53.126Z,1011.71
2023-01-30T10:17:53.113Z,1012.04
2023-01-30T10:18:53.144Z,1011.73
2023-01-30T10:19:53.120Z,1011.71
2023-01-30T10:20:53.120Z,1011.64
2023-01-30T10:21:53.124Z,1011.64
2023-01-30T10:22:53.118Z,1011.84
2023-01-30T10:23:53.134Z,1011.66
2023-01-30T10:24:53.116Z,1011.53
2023-01-30T10:25:53.128Z,1011.55
2023-01-30T10:26:53.128Z,1011.5
2023-01-30T10:27:53.125Z,1011.55
2023-01-30T10:29:06.205Z,1011.57
2023-01-30T10:29:53.155Z,1011.59
2023-01-30T10:30:53.381Z,1011.77
2023-01-30T10:31:53.200Z,1011.76
2023-01-30T10:32:53.116Z,1011.38
2023-01-30T10:33:53.137Z,1011.58
2023-01-30T10:34:53.135Z,1011.7
2023-01-30T10:35:53.125Z,1011.79
2023-01-30T10:36:53.117Z,1011.76
2023-01-30T10:37:53.116Z,1011.61
2023-01-30T10:38:53.145Z,1011.75
2023-01-30T10:39:55.662Z,1011.87
2023-01-30T10:40:53.122Z,1011.67
2023-01-30T10:41:53.117Z,1011.71
2023-01-30T10:42:53.118Z,1011.63
2023-01-30T10:43:53.149Z,1011.63
2023-01-30T10:44:53.124Z,1011.67
2023-01-30T10:45:53.128Z,1011.57
2023-01-30T10:46:53.201Z,1011.55
2023-01-30T10:47:53.121Z,1011.52
2023-01-30T10:48:53.147Z,1011.49
2023-01-30T10:49:53.124Z,1011.47
2023-01-30T10:50:53.119Z,1011.49
2023-01-30T10:51:53.118Z,1011.51
2023-01-30T10:52:53.127Z,1011.56
2023-01-30T10:53:53.140Z,1011.41
2023-01-30T10:54:53.124Z,1011.55
2023-01-30T10:55:53.123Z,1011.42
2023-01-30T10:56:53.121Z,1011.47
2023-01-30T10:57:53.128Z,1011.38
2023-01-30T10:58:53.136Z,1011.29
2023-01-30T10:59:53.125Z,1011.4
2023-01-30T11:00:53.179Z,1011.49
2023-01-30T11:01:53.143Z,1011.45
2023-01-30T11:02:53.187Z,1011.39
2023-01-30T11:03:53.135Z,1011.34
2023-01-30T11:04:53.109Z,1011.43
2023-01-30T11:05:53.140Z,1011.38
2023-01-30T11:06:53.105Z,1011.26
2023-01-30T11:07:53.111Z,1011.29
2023-01-30T11:08:53.123Z,1011.29
2023-01-30T11:09:53.144Z,1011.49
2023-01-30T11:10:53.110Z,1011.28
2023-01-30T11:11:53.111Z,1011.32
2023-01-30T11:12:53.111Z,1011.39
2023-01-30T11:13:53.120Z,1011.39
2023-01-30T11:14:53.133Z,1011.4
2023-01-30T11:15:53.134Z,1011.31
2023-01-30T11:16:53.110Z,1011.48
2023-01-30T11:17:54.462Z,1011.43
2023-01-30T11:19:19.656Z,1011.38
2023-01-30T11:19:53.109Z,1011.43
2023-01-30T11:20:53.100Z,1011.51
2023-01-30T11:21:53.114Z,1011.44
2023-01-30T11:22:53.102Z,1011.52
2023-01-30T11:23:53.125Z,1011.64
2023-01-30T11:24:53.108Z,1011.61
2023-01-30T11:26:05.488Z,1011.5
2023-01-30T11:26:53.175Z,1011.56
2023-01-30T11:27:53.103Z,1011.71
2023-01-30T11:28:53.150Z,1011.5
2023-01-30T11:29:53.110Z,1011.57
2023-01-30T11:30:53.134Z,1011.63
2023-01-30T11:31:53.245Z,1011.6
2023-01-30T11:32:53.104Z,1011.52
2023-01-30T11:33:53.124Z,1011.52
2023-01-30T11:34:53.110Z,1011.55
2023-01-30T11:35:53.127Z,1011.54
2023-01-30T11:36:53.126Z,1011.56
2023-01-30T11:37:53.120Z,1011.52
2023-01-30T11:38:53.140Z,1011.33
2023-01-30T11:39:53.123Z,1011.34
2023-01-30T11:40:53.136Z,1011.43
2023-01-30T11:41:53.121Z,1011.3
2023-01-30T11:42:53.132Z,1011.5
2023-01-30T11:43:53.156Z,1011.45
2023-01-30T11:44:54.259Z,1011.35
2023-01-30T11:45:53.189Z,1011.33
2023-01-30T11:46:53.166Z,1011.35
2023-01-30T11:47:57.896Z,1011.28
2023-01-30T11:49:06.234Z,1011.24
2023-01-30T11:50:15.672Z,1011.22
2023-01-30T11:50:53.120Z,1011.24
2023-01-30T11:51:53.123Z,1011.18
2023-01-30T11:52:53.133Z,1011.11
2023-01-30T11:53:53.143Z,1011.18
2023-01-30T11:54:53.117Z,1011.14
2023-01-30T11:56:03.771Z,1011.22
2023-01-30T11:56:53.136Z,1011.32
2023-01-30T11:57:53.137Z,1011.33
2023-01-30T11:58:53.252Z,1011.26
2023-01-30T11:59:53.132Z,1011.2
2023-01-30T12:00:53.120Z,1011.36
2023-01-30T12:01:53.259Z,1011.41
2023-01-30T12:02:53.173Z,1011.57
2023-01-30T12:03:53.153Z,1011.5
2023-01-30T12:04:53.124Z,1011.4
2023-01-30T12:05:53.135Z,1011.47
2023-01-30T12:06:53.129Z,1011.53
2023-01-30T12:07:53.118Z,1011.45
2023-01-30T12:08:53.135Z,1011.45